Архив погоды в Георгиевске

Метеограмма Георгиевск
Пятница, 27 Апреля
Время местн. Темп Ветер Видим Явления Облачность нижн/средн/верх Атм. давл. Влжн Точка росы ВНГО R Сост. почвы Tg s
Напр Скр Прв ур.ст ур.м изм
09:00 +20.8° штиль 0 - 20 км - ясно 736 761 -0.5 44% +8.1° более 2.5 км - - - -
06:00 +9.5° штиль 0 - 20 км - ясно 736 763 +0.3 79% +6° более 2.5 км - Сухая (без трещин) - -
03:00 +10.5° штиль 0 - 20 км - ясно 736 762 -0.5 78% +6.9° более 2.5 км - - - -
00:00 +14° штиль 0 - 20 км - ясно 736 763 -0.3 64% +7.4° более 2.5 км - - - -
Четверг, 26 Апреля
Время местн. Темп Ветер Видим Явления Облачность нижн/средн/верх Атм. давл. Влжн Точка росы ВНГО R Сост. почвы Tg s
Напр Скр Прв ур.ст ур.м изм
21:00 +17.5° штиль 0 - 20 км - ясно 737 763 +0.7 48% +6.4° более 2.5 км - - - -
18:00 +24.7° В 1 - 20 км - ясно 736 761 +0.1 28% +5.2° более 2.5 км - - - -
15:00 +26.6° В 2 - 20 км - ясно 736 761 -1.1 24% +4.6° более 2.5 км - - - -
12:00 +25.3° В 2 - 20 км - ясно 737 762 -0.7 24% +3.5° более 2.5 км - - - -
09:00 +18.8° штиль 0 - 20 км - ясно 738 764 +0.3 39% +4.7° более 2.5 км - - - -
06:00 +7.5° штиль 0 - 20 км - ясно 738 764 -0.1 78% +3.9° более 2.5 км 0 Сухая (без трещин) +6° -
03:00 +9.2° З 1 - 20 км - ясно 738 764 -0.2 68% +3.7° более 2.5 км - - - -
00:00 +10° штиль 0 - 20 км - ясно 738 764 0 71% +5° более 2.5 км - - - -
Среда, 25 Апреля
Время местн. Темп Ветер Видим Явления Облачность нижн/средн/верх Атм. давл. Влжн Точка росы ВНГО R Сост. почвы Tg s
Напр Скр Прв ур.ст ур.м изм
21:00 +14.2° штиль 0 - 20 км - переменная облачность 738 764 +0.9 54% +5.1° более 2.5 км - - - -
18:00 +21.8° В 1 - 20 км - переменная облачность 737 762 -0.2 26% +1.6° более 2.5 км 0 - - -
15:00 +24.1° С,С-В 1 - 20 км - переменная облачность 737 762 -0.6 20% -0.5° более 2.5 км - - - -
12:00 +21.5° В,Ю-В 1 - 20 км - облачно 738 763 0 26% +1.3° - - - - -
09:00 +16.4° В,Ю-В 1 - 20 км - переменная облачность 738 764 0 44% +4.1° более 2.5 км - - - -
06:00 +4.7° штиль 0 - 20 км - облачно с прояснениями 738 765 +0.3 81% +1.7° более 2.5 км - Сухая (без трещин) - -
03:00 +5.2° штиль 0 - 20 км - ясно 738 765 -0.5 76% +1.3° более 2.5 км - - - -
00:00 +6.8° З 1 - 20 км - ясно 739 765 -0.8 66% +0.9° более 2.5 км - - - -
Вторник, 24 Апреля
Время местн. Темп Ветер Видим Явления Облачность нижн/средн/верх Атм. давл. Влжн Точка росы ВНГО R Сост. почвы Tg s
Напр Скр Прв ур.ст ур.м изм
21:00 +10.4° штиль 0 - 20 км - ясно 739 766 +1 54% +1.4° более 2.5 км - - - -
18:00 +17.5° С 1 - 20 км - переменная облачность 738 764 0 27% -1.8° более 2.5 км - - - -
15:00 +18.9° С-З 2 - 20 км - переменная облачность 738 764 -0.5 24% -2.3° 1.5 км - - - -
12:00 +16.9° З,С-З 3 - 20 км - переменная облачность 739 765 +0.1 31% -0.2° 1.5 км - - - -
09:00 +11.7° Ю,Ю-З 1 - 20 км - облачно с прояснениями 739 765 +1.1 62% +4.7° 1.5 км - - - -
06:00 +8.7° штиль 0 - 20 км - облачно 738 764 +0.9 80% +5.4° 1 км - Влажная (без луж) - -